Wetterdaten: Woche 11.03.24 - 17.03.24 (KW11)
Datum Zeit Temp. I. Temp. A. Feuchte I. Feuchte A. Luftdruck Regen Wind Richtung Sonnenschein Solar Taupunkt Windchill Windböen
11.03.2024 00:00 21,9 °C 3,3 °C 51 % 91 % 998,1 hPa 0,0 l/m² 1,1 km/h (1 Bft) SW 0,00 h 0 W/m² 2,0 °C 3,3 °C 2,3 km/h (1 Bft)
11.03.2024 01:00 21,9 °C 3,3 °C 51 % 93 % 998,4 hPa 0,0 l/m² 1,0 km/h (0 Bft) W 0,00 h 0 W/m² 2,2 °C 3,3 °C 1,9 km/h (1 Bft)
11.03.2024 02:00 21,8 °C 4,2 °C 51 % 94 % 998,7 hPa 0,0 l/m² 0,3 km/h (0 Bft) W 0,00 h 0 W/m² 3,3 °C 4,2 °C 0,9 km/h (0 Bft)
11.03.2024 03:00 21,8 °C 4,7 °C 50 % 93 % 998,6 hPa 0,0 l/m² 1,9 km/h (1 Bft) W 0,00 h 0 W/m² 3,7 °C 4,7 °C 3,0 km/h (1 Bft)
11.03.2024 04:00 21,8 °C 4,6 °C 51 % 94 % 999,1 hPa 0,0 l/m² 0,0 km/h (0 Bft) W 0,00 h 0 W/m² 3,7 °C 4,6 °C 0,1 km/h (0 Bft)
11.03.2024 05:00 21,8 °C 4,5 °C 51 % 94 % 999,7 hPa 0,0 l/m² 0,6 km/h (0 Bft) W 0,00 h 0 W/m² 3,6 °C 4,5 °C 1,3 km/h (1 Bft)
11.03.2024 06:00 21,8 °C 5,0 °C 51 % 94 % 1000,3 hPa 0,0 l/m² 0,4 km/h (0 Bft) W 0,00 h 8 W/m² 4,1 °C 5,0 °C 1,0 km/h (0 Bft)
11.03.2024 07:00 21,8 °C 5,8 °C 50 % 93 % 1001,0 hPa 0,0 l/m² 0,0 km/h (0 Bft) W 0,25 h 41 W/m² 4,8 °C 5,8 °C 0,1 km/h (0 Bft)
11.03.2024 08:00 21,9 °C 8,2 °C 50 % 90 % 1001,9 hPa 0,0 l/m² 8,0 km/h (2 Bft) S 1,00 h 215 W/m² 6,7 °C 5,7 °C 11,4 km/h (2 Bft)
11.03.2024 09:00 22,4 °C 10,4 °C 49 % 81 % 1002,5 hPa 0,0 l/m² 20,3 km/h (4 Bft) S 1,00 h 341 W/m² 7,3 °C 3,9 °C 27,9 km/h (5 Bft)
11.03.2024 10:00 22,5 °C 10,8 °C 48 % 76 % 1003,7 hPa 0,0 l/m² 21,8 km/h (4 Bft) S 1,00 h 316 W/m² 6,9 °C 3,9 °C 30,0 km/h (5 Bft)
11.03.2024 11:00 22,4 °C 10,9 °C 49 % 77 % 1004,4 hPa 0,0 l/m² 17,3 km/h (3 Bft) S 1,00 h 213 W/m² 7,0 °C 5,4 °C 23,3 km/h (4 Bft)
11.03.2024 12:00 22,5 °C 11,7 °C 48 % 72 % 1004,6 hPa 0,0 l/m² 17,6 km/h (3 Bft) S-SW 1,00 h 321 W/m² 6,9 °C 6,3 °C 23,1 km/h (4 Bft)
11.03.2024 13:00 22,3 °C 12,0 °C 49 % 71 % 1004,8 hPa 0,0 l/m² 14,6 km/h (3 Bft) S-SW 1,00 h 272 W/m² 7,0 °C 7,8 °C 19,2 km/h (3 Bft)
11.03.2024 14:00 22,4 °C 12,7 °C 49 % 69 % 1005,1 hPa 0,0 l/m² 11,1 km/h (2 Bft) S-SW 1,00 h 230 W/m² 7,2 °C 10,1 °C 14,7 km/h (3 Bft)
11.03.2024 15:00 22,3 °C 13,7 °C 49 % 65 % 1005,6 hPa 0,0 l/m² 13,7 km/h (3 Bft) SW 1,00 h 296 W/m² 7,3 °C 10,2 °C 18,4 km/h (3 Bft)
11.03.2024 16:00 22,3 °C 12,8 °C 49 % 67 % 1006,1 hPa 0,0 l/m² 11,3 km/h (2 Bft) W-SW 1,00 h 145 W/m² 6,9 °C 10,2 °C 15,3 km/h (3 Bft)
11.03.2024 17:00 22,2 °C 12,2 °C 49 % 70 % 1006,6 hPa 0,0 l/m² 2,6 km/h (1 Bft) W-SW 0,58 h 67 W/m² 7,0 °C 12,1 °C 4,0 km/h (1 Bft)
11.03.2024 18:00 22,1 °C 9,2 °C 50 % 79 % 1007,4 hPa 0,0 l/m² 0,0 km/h (0 Bft) W-SW 0,00 h 9 W/m² 5,7 °C 9,2 °C 0,0 km/h (0 Bft)
11.03.2024 19:00 22,1 °C 6,3 °C 51 % 86 % 1008,4 hPa 0,0 l/m² 0,0 km/h (0 Bft) W-SW 0,00 h 0 W/m² 4,1 °C 6,3 °C 0,0 km/h (0 Bft)
11.03.2024 20:00 22,1 °C 4,8 °C 52 % 88 % 1009,0 hPa 0,0 l/m² 0,0 km/h (0 Bft) W-SW 0,00 h 0 W/m² 3,0 °C 4,8 °C 0,0 km/h (0 Bft)
11.03.2024 21:00 22,2 °C 3,8 °C 52 % 90 % 1009,7 hPa 0,0 l/m² 0,0 km/h (0 Bft) W-SW 0,00 h 0 W/m² 2,4 °C 3,8 °C 0,0 km/h (0 Bft)
11.03.2024 22:00 22,1 °C 3,0 °C 52 % 91 % 1010,3 hPa 0,0 l/m² 0,0 km/h (0 Bft) W-SW 0,00 h 0 W/m² 1,7 °C 3,0 °C 0,0 km/h (0 Bft)
11.03.2024 23:00 21,9 °C 2,0 °C 52 % 92 % 1010,6 hPa 0,0 l/m² 0,0 km/h (0 Bft) W-SW 0,00 h 0 W/m² 0,9 °C 2,0 °C 0,0 km/h (0 Bft)
12.03.2024 00:00 21,9 °C 1,5 °C 51 % 92 % 1010,7 hPa 0,0 l/m² 0,0 km/h (0 Bft) W-SW 0,00 h 0 W/m² 0,4 °C 1,5 °C 0,0 km/h (0 Bft)
12.03.2024 01:00 21,9 °C 1,1 °C 51 % 93 % 1010,9 hPa 0,0 l/m² 1,2 km/h (1 Bft) W-SW 0,00 h 0 W/m² 0,1 °C 1,1 °C 2,2 km/h (1 Bft)
12.03.2024 02:00 21,8 °C 0,5 °C 51 % 93 % 1011,2 hPa 0,0 l/m² 0,1 km/h (0 Bft) W-SW 0,00 h 0 W/m² -0,5 °C 0,5 °C 0,5 km/h (0 Bft)
12.03.2024 03:00 21,8 °C -0,1 °C 51 % 94 % 1011,3 hPa 0,0 l/m² 0,0 km/h (0 Bft) W-SW 0,00 h 0 W/m² -1,0 °C -0,1 °C 0,1 km/h (0 Bft)
12.03.2024 04:00 21,8 °C -0,5 °C 51 % 94 % 1011,4 hPa 0,0 l/m² 0,0 km/h (0 Bft) W-SW 0,00 h 0 W/m² -1,4 °C -0,5 °C 0,0 km/h (0 Bft)
12.03.2024 05:00 21,9 °C -0,6 °C 50 % 94 % 1012,0 hPa 0,0 l/m² 0,0 km/h (0 Bft) W-SW 0,00 h 0 W/m² -1,4 °C -0,6 °C 0,0 km/h (0 Bft)
12.03.2024 06:00 21,9 °C -0,8 °C 50 % 94 % 1012,4 hPa 0,0 l/m² 1,0 km/h (0 Bft) W-SW 0,00 h 10 W/m² -1,7 °C -0,8 °C 1,7 km/h (1 Bft)
12.03.2024 07:00 21,9 °C 0,7 °C 49 % 94 % 1013,0 hPa 0,2 l/m² 0,7 km/h (0 Bft) W-SW 0,73 h 88 W/m² -0,2 °C 0,7 °C 1,3 km/h (1 Bft)
12.03.2024 08:00 22,2 °C 4,6 °C 49 % 92 % 1013,5 hPa 0,0 l/m² 0,2 km/h (0 Bft) W-SW 1,00 h 245 W/m² 3,3 °C 4,6 °C 0,4 km/h (0 Bft)
12.03.2024 09:00 22,8 °C 8,8 °C 48 % 83 % 1013,7 hPa 0,0 l/m² 9,7 km/h (2 Bft) S-SW 1,00 h 351 W/m² 6,1 °C 6,6 °C 13,4 km/h (3 Bft)
12.03.2024 10:00 22,7 °C 9,7 °C 48 % 79 % 1013,9 hPa 0,0 l/m² 15,8 km/h (3 Bft) SW 1,02 h 257 W/m² 6,3 °C 4,5 °C 21,0 km/h (4 Bft)
12.03.2024 11:00 22,5 °C 10,4 °C 48 % 78 % 1014,2 hPa 0,0 l/m² 14,6 km/h (3 Bft) SW 0,98 h 292 W/m² 6,7 °C 5,8 °C 19,8 km/h (3 Bft)
12.03.2024 12:00 22,4 °C 10,7 °C 48 % 77 % 1014,4 hPa 0,0 l/m² 14,2 km/h (3 Bft) SW 1,02 h 278 W/m² 6,8 °C 6,4 °C 19,5 km/h (3 Bft)
12.03.2024 13:00 22,4 °C 11,7 °C 48 % 75 % 1014,3 hPa 0,0 l/m² 12,2 km/h (2 Bft) SW 1,00 h 315 W/m² 7,5 °C 8,5 °C 16,8 km/h (3 Bft)
12.03.2024 14:00 22,2 °C 11,1 °C 49 % 76 % 1014,4 hPa 0,0 l/m² 13,1 km/h (3 Bft) SW 0,98 h 112 W/m² 7,0 °C 7,4 °C 18,7 km/h (3 Bft)
12.03.2024 15:00 22,1 °C 10,7 °C 49 % 78 % 1014,8 hPa 0,0 l/m² 9,6 km/h (2 Bft) SW 1,02 h 95 W/m² 6,9 °C 8,6 °C 13,6 km/h (3 Bft)
12.03.2024 16:00 21,9 °C 10,3 °C 49 % 79 % 1015,0 hPa 0,0 l/m² 7,3 km/h (2 Bft) SW 0,38 h 45 W/m² 6,9 °C 9,6 °C 10,4 km/h (2 Bft)
12.03.2024 17:00 21,8 °C 9,5 °C 49 % 82 % 1015,3 hPa 0,0 l/m² 4,7 km/h (1 Bft) W-SW 0,00 h 9 W/m² 6,5 °C 9,4 °C 6,6 km/h (2 Bft)
12.03.2024 18:00 21,7 °C 8,7 °C 49 % 84 % 1015,5 hPa 0,0 l/m² 4,2 km/h (1 Bft) SW 0,00 h 5 W/m² 6,2 °C 8,7 °C 5,9 km/h (2 Bft)
12.03.2024 19:00 21,7 °C 8,3 °C 51 % 85 % 1016,0 hPa 0,0 l/m² 0,4 km/h (0 Bft) S-SW 0,00 h 0 W/m² 6,0 °C 8,3 °C 1,0 km/h (0 Bft)
12.03.2024 20:00 21,7 °C 7,9 °C 51 % 86 % 1016,2 hPa 0,0 l/m² 3,6 km/h (1 Bft) S-SW 0,00 h 0 W/m² 5,7 °C 7,9 °C 5,2 km/h (1 Bft)
12.03.2024 21:00 21,9 °C 7,7 °C 53 % 88 % 1016,6 hPa 0,0 l/m² 3,3 km/h (1 Bft) SW 0,00 h 0 W/m² 5,8 °C 7,7 °C 5,2 km/h (1 Bft)
12.03.2024 22:00 21,8 °C 7,3 °C 55 % 89 % 1016,7 hPa 0,0 l/m² 1,0 km/h (0 Bft) SW 0,00 h 0 W/m² 5,6 °C 7,3 °C 1,8 km/h (1 Bft)
12.03.2024 23:00 21,7 °C 7,0 °C 56 % 90 % 1016,7 hPa 0,0 l/m² 0,3 km/h (0 Bft) SW 0,00 h 0 W/m² 5,5 °C 7,0 °C 0,5 km/h (0 Bft)
13.03.2024 00:00 21,7 °C 6,6 °C 56 % 91 % 1016,5 hPa 0,0 l/m² 0,5 km/h (0 Bft) SW 0,00 h 0 W/m² 5,3 °C 6,6 °C 1,3 km/h (1 Bft)
13.03.2024 01:00 21,8 °C 6,2 °C 56 % 91 % 1016,5 hPa 0,0 l/m² 0,3 km/h (0 Bft) SW 0,00 h 0 W/m² 4,8 °C 6,2 °C 1,0 km/h (0 Bft)
13.03.2024 02:00 21,7 °C 4,0 °C 56 % 92 % 1016,4 hPa 0,0 l/m² 0,3 km/h (0 Bft) SW 0,00 h 0 W/m² 2,8 °C 4,0 °C 0,6 km/h (0 Bft)
13.03.2024 03:00 21,7 °C 2,4 °C 56 % 93 % 1016,4 hPa 0,0 l/m² 0,0 km/h (0 Bft) SW 0,00 h 0 W/m² 1,4 °C 2,4 °C 0,1 km/h (0 Bft)
13.03.2024 04:00 21,7 °C 2,1 °C 56 % 93 % 1016,3 hPa 0,0 l/m² 0,3 km/h (0 Bft) SW 0,00 h 0 W/m² 1,1 °C 2,1 °C 0,8 km/h (0 Bft)
13.03.2024 05:00 21,7 °C 1,5 °C 55 % 94 % 1016,2 hPa 0,0 l/m² 0,1 km/h (0 Bft) SW 0,00 h 0 W/m² 0,5 °C 1,5 °C 0,3 km/h (0 Bft)
13.03.2024 06:00 21,7 °C 0,5 °C 55 % 94 % 1016,5 hPa 0,0 l/m² 0,0 km/h (0 Bft) SW 0,00 h 11 W/m² -0,3 °C 0,5 °C 0,0 km/h (0 Bft)
13.03.2024 07:00 21,6 °C 0,7 °C 52 % 94 % 1016,8 hPa 0,0 l/m² 0,0 km/h (0 Bft) SW 0,67 h 68 W/m² -0,1 °C 0,7 °C 0,0 km/h (0 Bft)
13.03.2024 08:00 21,9 °C 4,0 °C 52 % 95 % 1017,0 hPa 0,0 l/m² 0,3 km/h (0 Bft) SW 1,02 h 230 W/m² 3,3 °C 4,0 °C 0,6 km/h (0 Bft)
13.03.2024 09:00 22,4 °C 8,6 °C 51 % 87 % 1017,1 hPa 0,0 l/m² 5,0 km/h (1 Bft) S 1,00 h 402 W/m² 6,6 °C 8,1 °C 7,8 km/h (2 Bft)
13.03.2024 10:00 22,9 °C 10,5 °C 50 % 79 % 1017,2 hPa 0,0 l/m² 10,5 km/h (2 Bft) S 1,00 h 533 W/m² 7,1 °C 8,0 °C 14,8 km/h (3 Bft)
13.03.2024 11:00 23,2 °C 11,6 °C 49 % 75 % 1017,0 hPa 0,0 l/m² 14,5 km/h (3 Bft) S 1,00 h 529 W/m² 7,3 °C 7,3 °C 19,9 km/h (4 Bft)
13.03.2024 12:00 23,0 °C 11,8 °C 49 % 74 % 1016,8 hPa 0,0 l/m² 13,3 km/h (3 Bft) S-SW 0,98 h 355 W/m² 7,3 °C 8,1 °C 18,2 km/h (3 Bft)
13.03.2024 13:00 23,1 °C 12,5 °C 49 % 72 % 1016,3 hPa 0,0 l/m² 13,1 km/h (3 Bft) S-SW 1,02 h 459 W/m² 7,6 °C 9,0 °C 17,4 km/h (3 Bft)
13.03.2024 14:00 23,1 °C 12,6 °C 49 % 71 % 1016,0 hPa 0,0 l/m² 12,7 km/h (3 Bft) S-SW 1,00 h 368 W/m² 7,5 °C 9,3 °C 16,6 km/h (3 Bft)
13.03.2024 15:00 22,9 °C 12,4 °C 49 % 72 % 1015,6 hPa 0,0 l/m² 10,7 km/h (2 Bft) S-SW 1,00 h 206 W/m² 7,4 °C 10,0 °C 14,3 km/h (3 Bft)
13.03.2024 16:00 22,5 °C 12,1 °C 50 % 73 % 1015,7 hPa 0,0 l/m² 10,2 km/h (2 Bft) SW 1,00 h 82 W/m² 7,5 °C 10,0 °C 14,2 km/h (3 Bft)
13.03.2024 17:00 22,2 °C 11,6 °C 49 % 76 % 1015,8 hPa 0,0 l/m² 6,9 km/h (2 Bft) SW 0,20 h 29 W/m² 7,6 °C 10,9 °C 9,3 km/h (2 Bft)
13.03.2024 18:00 22,1 °C 10,8 °C 48 % 79 % 1015,9 hPa 0,0 l/m² 2,1 km/h (1 Bft) S-SW 0,00 h 5 W/m² 7,3 °C 10,8 °C 3,1 km/h (1 Bft)
13.03.2024 19:00 22,0 °C 10,4 °C 50 % 82 % 1016,2 hPa 0,0 l/m² 3,3 km/h (1 Bft) S-SW 0,00 h 0 W/m² 7,4 °C 10,4 °C 4,9 km/h (1 Bft)
13.03.2024 20:00 21,9 °C 10,4 °C 51 % 84 % 1016,4 hPa 0,0 l/m² 4,0 km/h (1 Bft) SW 0,00 h 0 W/m² 7,9 °C 10,3 °C 5,4 km/h (1 Bft)
13.03.2024 21:00 21,9 °C 9,8 °C 51 % 89 % 1016,5 hPa 0,0 l/m² 7,6 km/h (2 Bft) SW 0,00 h 0 W/m² 8,1 °C 8,7 °C 10,0 km/h (2 Bft)
13.03.2024 22:00 21,9 °C 9,8 °C 52 % 91 % 1016,5 hPa 0,0 l/m² 6,7 km/h (2 Bft) S-SW 0,00 h 0 W/m² 8,3 °C 9,3 °C 9,0 km/h (2 Bft)
13.03.2024 23:00 21,8 °C 9,4 °C 52 % 93 % 1016,5 hPa 0,2 l/m² 3,7 km/h (1 Bft) S-SW 0,00 h 0 W/m² 8,3 °C 9,4 °C 5,5 km/h (2 Bft)
14.03.2024 00:00 21,8 °C 9,2 °C 51 % 94 % 1016,4 hPa 0,2 l/m² 0,0 km/h (0 Bft) S-SW 0,00 h 0 W/m² 8,3 °C 9,2 °C 0,1 km/h (0 Bft)
14.03.2024 01:00 21,8 °C 9,1 °C 52 % 95 % 1016,3 hPa 0,0 l/m² 0,1 km/h (0 Bft) S-SW 0,00 h 0 W/m² 8,3 °C 9,1 °C 0,3 km/h (0 Bft)
14.03.2024 02:00 21,7 °C 9,1 °C 52 % 95 % 1016,0 hPa 0,0 l/m² 0,1 km/h (0 Bft) S-SW 0,00 h 0 W/m² 8,3 °C 9,1 °C 0,3 km/h (0 Bft)
14.03.2024 03:00 21,7 °C 9,1 °C 52 % 95 % 1015,8 hPa 0,0 l/m² 0,1 km/h (0 Bft) S-SW 0,00 h 0 W/m² 8,3 °C 9,1 °C 0,3 km/h (0 Bft)
14.03.2024 04:00 21,7 °C 8,9 °C 52 % 95 % 1015,6 hPa 0,0 l/m² 0,4 km/h (0 Bft) S-SW 0,00 h 0 W/m² 8,2 °C 8,9 °C 0,8 km/h (0 Bft)
14.03.2024 05:00 21,7 °C 8,8 °C 52 % 96 % 1015,5 hPa 0,0 l/m² 0,0 km/h (0 Bft) S-SW 0,00 h 0 W/m² 8,2 °C 8,8 °C 0,2 km/h (0 Bft)
14.03.2024 06:00 21,7 °C 9,0 °C 53 % 96 % 1015,4 hPa 0,2 l/m² 0,3 km/h (0 Bft) S-SW 0,00 h 15 W/m² 8,4 °C 9,0 °C 0,9 km/h (0 Bft)
14.03.2024 07:00 21,7 °C 9,5 °C 53 % 96 % 1015,4 hPa 0,0 l/m² 0,5 km/h (0 Bft) SO 0,00 h 25 W/m² 8,9 °C 9,5 °C 0,8 km/h (0 Bft)
14.03.2024 08:00 21,6 °C 10,3 °C 52 % 96 % 1015,6 hPa 0,0 l/m² 1,6 km/h (1 Bft) SO 0,98 h 95 W/m² 9,6 °C 10,3 °C 2,9 km/h (1 Bft)
14.03.2024 09:00 21,6 °C 11,5 °C 52 % 94 % 1015,8 hPa 0,0 l/m² 1,1 km/h (1 Bft) S 1,00 h 145 W/m² 10,5 °C 11,5 °C 2,6 km/h (1 Bft)
14.03.2024 10:00 21,7 °C 11,8 °C 52 % 92 % 1015,9 hPa 0,0 l/m² 6,0 km/h (2 Bft) S 1,00 h 129 W/m² 10,6 °C 11,5 °C 9,2 km/h (2 Bft)
14.03.2024 11:00 21,7 °C 12,4 °C 52 % 90 % 1015,7 hPa 0,0 l/m² 6,7 km/h (2 Bft) S-SO 1,00 h 247 W/m² 10,9 °C 11,7 °C 10,3 km/h (2 Bft)
14.03.2024 12:00 21,7 °C 13,4 °C 54 % 88 % 1015,3 hPa 0,0 l/m² 9,7 km/h (2 Bft) S-SO 1,00 h 337 W/m² 11,3 °C 11,5 °C 13,9 km/h (3 Bft)
14.03.2024 13:00 21,8 °C 13,9 °C 54 % 85 % 1014,9 hPa 0,0 l/m² 10,8 km/h (2 Bft) S-SO 1,00 h 325 W/m² 11,4 °C 11,7 °C 15,4 km/h (3 Bft)
14.03.2024 14:00 21,7 °C 14,8 °C 54 % 80 % 1014,2 hPa 0,0 l/m² 11,7 km/h (2 Bft) S 1,00 h 341 W/m² 11,4 °C 12,2 °C 16,1 km/h (3 Bft)
14.03.2024 15:00 21,7 °C 14,9 °C 53 % 77 % 1013,5 hPa 0,0 l/m² 14,2 km/h (3 Bft) S-SO 1,00 h 242 W/m² 10,9 °C 11,4 °C 19,0 km/h (3 Bft)
14.03.2024 16:00 21,7 °C 14,7 °C 53 % 78 % 1012,9 hPa 0,0 l/m² 10,3 km/h (2 Bft) S-SO 1,00 h 199 W/m² 10,9 °C 12,7 °C 14,4 km/h (3 Bft)
14.03.2024 17:00 21,7 °C 13,6 °C 53 % 79 % 1012,6 hPa 0,0 l/m² 6,9 km/h (2 Bft) SO 0,35 h 52 W/m² 10,0 °C 12,9 °C 9,7 km/h (2 Bft)
14.03.2024 18:00 21,7 °C 11,5 °C 53 % 83 % 1012,3 hPa 0,0 l/m² 1,0 km/h (0 Bft) SO 0,00 h 8 W/m² 8,7 °C 11,5 °C 1,9 km/h (1 Bft)
14.03.2024 19:00 21,6 °C 10,0 °C 55 % 86 % 1012,4 hPa 0,0 l/m² 0,1 km/h (0 Bft) SO 0,00 h 0 W/m² 7,8 °C 10,0 °C 0,4 km/h (0 Bft)
14.03.2024 20:00 21,6 °C 9,1 °C 55 % 88 % 1012,2 hPa 0,0 l/m² 0,2 km/h (0 Bft) SO 0,00 h 0 W/m² 7,2 °C 9,1 °C 0,8 km/h (0 Bft)
14.03.2024 21:00 21,7 °C 6,9 °C 55 % 91 % 1012,0 hPa 0,0 l/m² 0,0 km/h (0 Bft) O 0,00 h 0 W/m² 5,5 °C 6,9 °C 0,0 km/h (0 Bft)
14.03.2024 22:00 21,6 °C 5,8 °C 54 % 93 % 1011,9 hPa 0,0 l/m² 0,0 km/h (0 Bft) O 0,00 h 0 W/m² 4,7 °C 5,8 °C 0,0 km/h (0 Bft)
14.03.2024 23:00 21,6 °C 5,0 °C 54 % 93 % 1011,6 hPa 0,0 l/m² 0,3 km/h (0 Bft) O 0,00 h 0 W/m² 4,0 °C 5,0 °C 1,0 km/h (0 Bft)
15.03.2024 00:00 21,6 °C 4,9 °C 55 % 94 % 1011,2 hPa 0,0 l/m² 0,5 km/h (0 Bft) O 0,00 h 0 W/m² 4,0 °C 4,9 °C 1,3 km/h (1 Bft)
15.03.2024 01:00 21,6 °C 4,4 °C 55 % 94 % 1010,8 hPa 0,0 l/m² 0,1 km/h (0 Bft) O 0,00 h 0 W/m² 3,6 °C 4,4 °C 0,8 km/h (0 Bft)
15.03.2024 02:00 21,6 °C 5,0 °C 54 % 94 % 1010,4 hPa 0,0 l/m² 0,5 km/h (0 Bft) SW 0,00 h 0 W/m² 4,2 °C 5,0 °C 1,9 km/h (1 Bft)
15.03.2024 03:00 21,6 °C 4,7 °C 54 % 94 % 1010,2 hPa 0,0 l/m² 0,2 km/h (0 Bft) O 0,00 h 0 W/m² 3,9 °C 4,7 °C 0,5 km/h (0 Bft)
15.03.2024 04:00 21,6 °C 4,6 °C 54 % 95 % 1010,1 hPa 0,0 l/m² 0,0 km/h (0 Bft) O 0,00 h 0 W/m² 3,8 °C 4,6 °C 0,0 km/h (0 Bft)
15.03.2024 05:00 21,6 °C 4,1 °C 54 % 95 % 1010,0 hPa 0,0 l/m² 0,0 km/h (0 Bft) O 0,00 h 0 W/m² 3,3 °C 4,1 °C 0,0 km/h (0 Bft)
15.03.2024 06:00 21,6 °C 3,8 °C 54 % 95 % 1009,9 hPa 0,0 l/m² 0,4 km/h (0 Bft) O 0,00 h 12 W/m² 3,0 °C 3,8 °C 0,8 km/h (0 Bft)
15.03.2024 07:00 21,6 °C 4,4 °C 52 % 95 % 1010,0 hPa 0,0 l/m² 0,1 km/h (0 Bft) O 0,63 h 59 W/m² 3,7 °C 4,4 °C 0,5 km/h (0 Bft)
15.03.2024 08:00 21,7 °C 9,0 °C 52 % 94 % 1010,0 hPa 0,0 l/m² 0,0 km/h (0 Bft) O 1,00 h 230 W/m² 8,0 °C 9,0 °C 0,2 km/h (0 Bft)
15.03.2024 09:00 22,1 °C 12,9 °C 51 % 87 % 1010,0 hPa 0,0 l/m² 7,5 km/h (2 Bft) S-SW 1,02 h 390 W/m² 10,7 °C 11,5 °C 10,6 km/h (2 Bft)
15.03.2024 10:00 22,6 °C 15,0 °C 51 % 80 % 1009,9 hPa 0,0 l/m² 14,4 km/h (3 Bft) S-SW 1,00 h 489 W/m² 11,5 °C 11,6 °C 19,6 km/h (3 Bft)
15.03.2024 11:00 23,1 °C 16,3 °C 50 % 73 % 1009,9 hPa 0,0 l/m² 19,4 km/h (3 Bft) SW 0,98 h 470 W/m² 11,3 °C 11,6 °C 27,4 km/h (5 Bft)
15.03.2024 12:00 22,7 °C 16,7 °C 51 % 72 % 1009,8 hPa 0,0 l/m² 14,2 km/h (3 Bft) SW 1,02 h 280 W/m² 11,7 °C 13,6 °C 20,3 km/h (4 Bft)
15.03.2024 13:00 22,4 °C 16,8 °C 51 % 71 % 1009,7 hPa 0,0 l/m² 18,3 km/h (3 Bft) SW 1,00 h 266 W/m² 11,6 °C 12,5 °C 24,5 km/h (4 Bft)
15.03.2024 14:00 22,4 °C 17,1 °C 51 % 71 % 1009,7 hPa 0,0 l/m² 17,9 km/h (3 Bft) SW 1,00 h 306 W/m² 11,8 °C 13,1 °C 24,2 km/h (4 Bft)
15.03.2024 15:00 22,4 °C 16,7 °C 52 % 70 % 1009,6 hPa 0,0 l/m² 16,5 km/h (3 Bft) SW 0,83 h 123 W/m² 11,3 °C 12,9 °C 21,9 km/h (4 Bft)
15.03.2024 16:00 22,3 °C 15,8 °C 52 % 73 % 1009,5 hPa 0,0 l/m² 15,7 km/h (3 Bft) SW 1,00 h 128 W/m² 11,1 °C 12,1 °C 21,9 km/h (4 Bft)
15.03.2024 17:00 22,1 °C 15,1 °C 52 % 75 % 1009,8 hPa 0,0 l/m² 12,7 km/h (3 Bft) SW 0,48 h 56 W/m² 10,7 °C 12,3 °C 17,5 km/h (3 Bft)
15.03.2024 18:00 22,1 °C 12,7 °C 54 % 82 % 1010,1 hPa 0,0 l/m² 8,1 km/h (2 Bft) S-SW 0,00 h 12 W/m² 9,6 °C 11,5 °C 10,2 km/h (2 Bft)
15.03.2024 19:00 22,2 °C 11,6 °C 54 % 84 % 1010,5 hPa 0,0 l/m² 6,3 km/h (2 Bft) S-SW 0,00 h 0 W/m² 8,9 °C 11,0 °C 8,4 km/h (2 Bft)
15.03.2024 20:00 22,1 °C 11,7 °C 56 % 83 % 1010,7 hPa 0,0 l/m² 5,6 km/h (2 Bft) S-SW 0,00 h 0 W/m² 8,9 °C 11,3 °C 8,5 km/h (2 Bft)
15.03.2024 21:00 22,2 °C 11,1 °C 57 % 84 % 1010,9 hPa 0,0 l/m² 4,1 km/h (1 Bft) S-SW 0,00 h 0 W/m² 8,5 °C 10,5 °C 6,1 km/h (2 Bft)
15.03.2024 22:00 22,1 °C 10,4 °C 57 % 87 % 1011,0 hPa 0,0 l/m² 2,9 km/h (1 Bft) NW 0,00 h 0 W/m² 8,3 °C 10,1 °C 4,5 km/h (1 Bft)
15.03.2024 23:00 21,9 °C 10,2 °C 57 % 88 % 1011,0 hPa 0,0 l/m² 5,7 km/h (2 Bft) S-SW 0,00 h 0 W/m² 8,2 °C 9,3 °C 8,1 km/h (2 Bft)
16.03.2024 00:00 21,9 °C 10,1 °C 57 % 89 % 1011,0 hPa 0,0 l/m² 7,1 km/h (2 Bft) S-SW 0,00 h 0 W/m² 8,4 °C 9,1 °C 10,6 km/h (2 Bft)
16.03.2024 01:00 21,8 °C 10,2 °C 57 % 89 % 1010,9 hPa 0,0 l/m² 5,9 km/h (2 Bft) S-SW 0,00 h 0 W/m² 8,6 °C 10,0 °C 8,5 km/h (2 Bft)
16.03.2024 02:00 21,8 °C 10,4 °C 57 % 88 % 1011,0 hPa 0,0 l/m² 5,2 km/h (1 Bft) SW 0,00 h 0 W/m² 8,5 °C 10,1 °C 8,1 km/h (2 Bft)
16.03.2024 03:00 21,7 °C 9,6 °C 57 % 89 % 1011,1 hPa 0,0 l/m² 1,3 km/h (1 Bft) W-SW 0,00 h 0 W/m² 7,9 °C 9,6 °C 2,6 km/h (1 Bft)
16.03.2024 04:00 21,7 °C 7,6 °C 56 % 91 % 1011,4 hPa 0,0 l/m² 0,2 km/h (0 Bft) W-NW 0,00 h 0 W/m² 6,2 °C 7,6 °C 0,9 km/h (0 Bft)
16.03.2024 05:00 21,6 °C 7,6 °C 56 % 92 % 1011,4 hPa 0,0 l/m² 4,0 km/h (1 Bft) SW 0,00 h 0 W/m² 6,4 °C 7,5 °C 6,2 km/h (2 Bft)
16.03.2024 06:00 21,7 °C 9,1 °C 56 % 90 % 1011,6 hPa 0,0 l/m² 11,5 km/h (2 Bft) S-SW 0,00 h 9 W/m² 7,5 °C 5,8 °C 15,8 km/h (3 Bft)
16.03.2024 07:00 21,7 °C 9,3 °C 56 % 89 % 1012,0 hPa 0,0 l/m² 10,8 km/h (2 Bft) SW 0,63 h 62 W/m² 7,5 °C 6,3 °C 13,8 km/h (3 Bft)
16.03.2024 08:00 21,8 °C 11,3 °C 57 % 86 % 1012,5 hPa 0,0 l/m² 13,1 km/h (3 Bft) SW 1,00 h 208 W/m² 8,9 °C 7,6 °C 17,8 km/h (3 Bft)
16.03.2024 09:00 22,1 °C 12,3 °C 56 % 82 % 1012,9 hPa 0,0 l/m² 20,7 km/h (4 Bft) SW 1,00 h 207 W/m² 9,3 °C 6,2 °C 28,6 km/h (5 Bft)
16.03.2024 10:00 21,9 °C 12,9 °C 55 % 80 % 1013,1 hPa 0,0 l/m² 19,0 km/h (3 Bft) SW 1,00 h 250 W/m² 9,6 °C 7,3 °C 25,9 km/h (4 Bft)
16.03.2024 11:00 22,2 °C 14,3 °C 54 % 75 % 1013,5 hPa 0,0 l/m² 20,9 km/h (4 Bft) W-SW 1,00 h 350 W/m² 10,0 °C 8,7 °C 27,8 km/h (5 Bft)
16.03.2024 12:00 22,3 °C 11,3 °C 56 % 81 % 1014,4 hPa 0,8 l/m² 18,2 km/h (3 Bft) W-NW 0,70 h 122 W/m² 8,1 °C 6,0 °C 27,4 km/h (5 Bft)
16.03.2024 13:00 22,2 °C 10,2 °C 57 % 84 % 1015,7 hPa 0,0 l/m² 16,0 km/h (3 Bft) W-NW 1,00 h 241 W/m² 7,7 °C 5,1 °C 26,4 km/h (4 Bft)
16.03.2024 14:00 22,2 °C 10,7 °C 56 % 79 % 1016,6 hPa 0,0 l/m² 19,3 km/h (3 Bft) W-NW 1,00 h 418 W/m² 7,2 °C 4,5 °C 30,4 km/h (5 Bft)
16.03.2024 15:00 22,1 °C 9,6 °C 52 % 76 % 1017,6 hPa 0,0 l/m² 17,7 km/h (3 Bft) W 0,97 h 144 W/m² 5,7 °C 3,7 °C 28,2 km/h (5 Bft)
16.03.2024 16:00 22,0 °C 9,3 °C 53 % 72 % 1018,4 hPa 0,0 l/m² 16,9 km/h (3 Bft) W 1,02 h 111 W/m² 4,5 °C 3,7 °C 25,7 km/h (4 Bft)
16.03.2024 17:00 21,8 °C 8,9 °C 51 % 69 % 1019,4 hPa 0,0 l/m² 19,7 km/h (3 Bft) W 0,35 h 58 W/m² 3,5 °C 2,0 °C 28,1 km/h (5 Bft)
16.03.2024 18:00 21,7 °C 6,7 °C 51 % 76 % 1020,4 hPa 0,0 l/m² 8,4 km/h (2 Bft) W 0,00 h 10 W/m² 2,7 °C 4,6 °C 12,0 km/h (2 Bft)
16.03.2024 19:00 21,8 °C 4,7 °C 53 % 81 % 1021,2 hPa 0,0 l/m² 2,9 km/h (1 Bft) W 0,00 h 0 W/m² 1,7 °C 4,7 °C 4,5 km/h (1 Bft)
16.03.2024 20:00 22,0 °C 4,3 °C 53 % 82 % 1021,8 hPa 0,0 l/m² 3,3 km/h (1 Bft) W-SW 0,00 h 0 W/m² 1,5 °C 4,3 °C 5,3 km/h (1 Bft)
16.03.2024 21:00 22,1 °C 2,8 °C 53 % 86 % 1022,3 hPa 0,2 l/m² 0,3 km/h (0 Bft) W-SW 0,00 h 0 W/m² 0,7 °C 2,8 °C 1,0 km/h (0 Bft)
16.03.2024 22:00 22,0 °C 3,1 °C 53 % 87 % 1023,0 hPa 0,0 l/m² 4,0 km/h (1 Bft) W-NW 0,00 h 0 W/m² 1,2 °C 3,1 °C 6,3 km/h (2 Bft)
16.03.2024 23:00 21,7 °C 3,0 °C 53 % 87 % 1023,3 hPa 0,0 l/m² 0,9 km/h (0 Bft) W-SW 0,00 h 0 W/m² 1,0 °C 3,0 °C 1,6 km/h (1 Bft)
17.03.2024 00:00 21,7 °C 2,2 °C 53 % 89 % 1023,7 hPa 0,0 l/m² 1,4 km/h (1 Bft) W-SW 0,00 h 0 W/m² 0,5 °C 2,2 °C 2,8 km/h (1 Bft)
17.03.2024 01:00 21,7 °C 1,7 °C 53 % 89 % 1023,9 hPa 0,0 l/m² 1,0 km/h (0 Bft) W-SW 0,00 h 0 W/m² 0,1 °C 1,7 °C 1,7 km/h (1 Bft)
17.03.2024 02:00 21,6 °C 0,9 °C 53 % 92 % 1023,9 hPa 0,0 l/m² 0,1 km/h (0 Bft) W-SW 0,00 h 0 W/m² -0,3 °C 0,9 °C 0,2 km/h (0 Bft)
17.03.2024 03:00 21,6 °C 0,8 °C 53 % 93 % 1023,9 hPa 0,0 l/m² 0,1 km/h (0 Bft) W-SW 0,00 h 0 W/m² -0,3 °C 0,8 °C 0,4 km/h (0 Bft)
17.03.2024 04:00 21,6 °C 0,7 °C 53 % 93 % 1023,8 hPa 0,0 l/m² 0,0 km/h (0 Bft) W-SW 0,00 h 0 W/m² -0,3 °C 0,7 °C 0,0 km/h (0 Bft)
17.03.2024 05:00 21,5 °C -0,2 °C 53 % 93 % 1023,9 hPa 0,0 l/m² 0,0 km/h (0 Bft) W-SW 0,00 h 0 W/m² -1,2 °C -0,2 °C 0,0 km/h (0 Bft)
17.03.2024 06:00 21,4 °C -0,6 °C 53 % 93 % 1024,3 hPa 0,0 l/m² 0,0 km/h (0 Bft) W-SW 0,00 h 17 W/m² -1,6 °C -0,6 °C 0,0 km/h (0 Bft)
17.03.2024 07:00 21,6 °C 0,8 °C 53 % 93 % 1024,9 hPa 0,0 l/m² 0,0 km/h (0 Bft) W-SW 0,90 h 114 W/m² -0,2 °C 0,8 °C 0,1 km/h (0 Bft)
17.03.2024 08:00 21,7 °C 3,5 °C 54 % 90 % 1025,0 hPa 0,0 l/m² 0,2 km/h (0 Bft) W-SW 1,02 h 226 W/m² 1,9 °C 3,5 °C 0,6 km/h (0 Bft)
17.03.2024 09:00 22,2 °C 6,4 °C 53 % 86 % 1025,0 hPa 0,0 l/m² 2,4 km/h (1 Bft) SW 0,98 h 458 W/m² 4,2 °C 6,4 °C 4,4 km/h (1 Bft)
17.03.2024 10:00 22,4 °C 7,8 °C 52 % 78 % 1024,8 hPa 0,0 l/m² 4,3 km/h (1 Bft) W-SW 1,02 h 367 W/m² 4,2 °C 7,7 °C 6,9 km/h (2 Bft)
17.03.2024 11:00 22,7 °C 9,2 °C 48 % 72 % 1024,6 hPa 0,0 l/m² 4,6 km/h (1 Bft) S-SW 0,98 h 560 W/m² 4,4 °C 8,9 °C 8,1 km/h (2 Bft)
17.03.2024 12:00 22,6 °C 9,6 °C 47 % 68 % 1024,3 hPa 0,0 l/m² 2,9 km/h (1 Bft) W-SW 1,00 h 500 W/m² 3,9 °C 9,5 °C 5,4 km/h (1 Bft)
17.03.2024 13:00 22,7 °C 10,8 °C 46 % 64 % 1023,8 hPa 0,0 l/m² 4,4 km/h (1 Bft) W-SW 1,02 h 636 W/m² 4,3 °C 10,6 °C 7,6 km/h (2 Bft)
17.03.2024 14:00 22,6 °C 11,4 °C 47 % 61 % 1023,2 hPa 0,0 l/m² 3,6 km/h (1 Bft) S-SO 0,98 h 553 W/m² 4,1 °C 11,3 °C 6,4 km/h (2 Bft)
17.03.2024 15:00 22,5 °C 11,1 °C 48 % 60 % 1023,1 hPa 0,0 l/m² 1,4 km/h (1 Bft) W-SW 1,00 h 310 W/m² 3,6 °C 11,1 °C 3,2 km/h (1 Bft)
17.03.2024 16:00 22,4 °C 11,2 °C 47 % 59 % 1022,6 hPa 0,0 l/m² 2,1 km/h (1 Bft) NO 1,00 h 231 W/m² 3,6 °C 11,2 °C 4,4 km/h (1 Bft)
17.03.2024 17:00 22,2 °C 9,8 °C 48 % 65 % 1022,3 hPa 0,0 l/m² 3,2 km/h (1 Bft) NO 0,38 h 50 W/m² 3,5 °C 9,8 °C 6,3 km/h (2 Bft)
17.03.2024 18:00 22,0 °C 7,1 °C 48 % 75 % 1022,4 hPa 0,0 l/m² 2,1 km/h (1 Bft) NO 0,00 h 10 W/m² 2,9 °C 7,1 °C 4,1 km/h (1 Bft)
17.03.2024 19:00 22,0 °C 4,9 °C 50 % 83 % 1022,5 hPa 0,0 l/m² 0,4 km/h (0 Bft) NO 0,00 h 0 W/m² 2,2 °C 4,9 °C 0,8 km/h (0 Bft)
17.03.2024 20:00 22,0 °C 3,2 °C 51 % 88 % 1022,6 hPa 0,0 l/m² 0,0 km/h (0 Bft) NO 0,00 h 0 W/m² 1,5 °C 3,2 °C 0,1 km/h (0 Bft)
17.03.2024 21:00 22,1 °C 2,4 °C 52 % 89 % 1022,6 hPa 0,0 l/m² 0,0 km/h (0 Bft) NO 0,00 h 0 W/m² 0,7 °C 2,4 °C 0,2 km/h (0 Bft)
17.03.2024 22:00 22,1 °C 2,4 °C 51 % 90 % 1022,4 hPa 0,0 l/m² 0,7 km/h (0 Bft) NO 0,00 h 0 W/m² 0,9 °C 2,4 °C 1,3 km/h (1 Bft)
17.03.2024 23:00 21,9 °C 3,0 °C 52 % 86 % 1022,2 hPa 0,0 l/m² 4,0 km/h (1 Bft) NO 0,00 h 0 W/m² 0,8 °C 3,0 °C 6,2 km/h (2 Bft)
Min-Datum _ 17.03.24 17.03.24 17.03.24 17.03.24 11.03.24 - 17.03.24 - - - 17.03.24 17.03.24 17.03.24
_ Min-Zeit 07:00 06:33 11:36 15:30 00:19 - 22:05 - - - 06:33 06:33 22:05
Minimum _ 21,4 °C -0,9 °C 43 % 55 % 997,8 hPa - 0,0 km/h (0 Bft) - - - -1,9 °C -0,9 °C 0,0 km/h (0 Bft)
Max-Datum _ 13.03.24 15.03.24 16.03.24 15.03.24 17.03.24 16.03.24 16.03.24 - 17.03.24 17.03.24 15.03.24 15.03.24 16.03.24
_ Max-Zeit 11:57 14:51 12:38 08:00 08:40 12:42 12:10 - 13:57 11:41 14:50 12:06 14:22
Maximum _ 23,3 °C 18,2 °C 59 % 96 % 1025,2 hPa 0,8 l/m² 30,6 km/h
W-NW (5 Bft)
- 0,08 h 846 W/m² 13,0 °C 16,0 °C 48,3 km/h
W (6 Bft)
Durchschnitt _ 22,0 °C 8,1 °C 52 % 85 % 1014,0 hPa #1,8 l/m² 5,5 km/h (2 Bft) W-SW #68:06 h 113 W/m² 5,5 °C 6,8 °C 7,9 km/h (2 Bft)
© 2009 Mathias Hoßbach